Time;durP1;ratioP1;P1;durP2;ratioP2;P2;SDS_P1;SDS_P2;PMS_P1;PMS_P2;Temp;Humidity;BMP_temperature;BMP_pressure;BME280_temperature;BME280_humidity;BME280_pressure;Samples;Min_cycle;Max_cycle;Signal;HPM_P1;HPM_P2
2023/10/21 00:00:22;;;;;;;16.23;3.15;;;;;;;17.18;45.89;93525.41;5064665;28;20027;-78
2023/10/21 00:02:47;;;;;;;12.23;2.97;;;;;;;17.11;45.92;93525.28;5063480;28;20071;-78
2023/10/21 00:05:13;;;;;;;11.38;3.15;;;;;;;16.93;46.84;93520.41;5064525;28;20020;-77
2023/10/21 00:07:38;;;;;;;21.63;4.30;;;;;;;16.88;47.24;93550.34;5064240;28;20017;-77
2023/10/21 00:10:06;;;;;;;10.10;3.28;;;;;;;16.67;48.35;93539.16;5063113;28;20016;-77
2023/10/21 00:12:36;;;;;;;14.90;3.08;;;;;;;16.60;48.54;93539.84;5064436;28;20032;-77
2023/10/21 00:15:06;;;;;;;18.75;4.43;;;;;;;16.54;48.91;93525.13;5064019;28;20326;-77
2023/10/21 00:17:32;;;;;;;10.43;3.35;;;;;;;16.53;49.76;93551.25;5064319;28;20041;-77
2023/10/21 00:19:59;;;;;;;11.13;4.18;;;;;;;16.32;50.37;93548.19;5063164;28;20083;-78
2023/10/21 00:22:24;;;;;;;9.30;4.00;;;;;;;16.31;50.60;93533.19;5064471;28;20024;-78
2023/10/21 00:24:50;;;;;;;12.90;4.55;;;;;;;16.35;50.72;93542.09;5064098;28;20056;-78
2023/10/21 00:27:15;;;;;;;14.90;4.65;;;;;;;16.23;50.81;93546.50;5064105;28;20032;-78
2023/10/21 00:29:40;;;;;;;13.40;5.18;;;;;;;16.19;51.09;93540.28;5064034;28;20223;-77
2023/10/21 00:32:06;;;;;;;15.55;4.45;;;;;;;16.19;50.91;93552.94;5064227;28;20029;-78
2023/10/21 00:34:32;;;;;;;11.52;3.90;;;;;;;16.16;51.59;93551.75;5063787;28;20078;-77
2023/10/21 00:36:57;;;;;;;17.65;4.38;;;;;;;16.18;51.63;93546.78;5064099;28;20020;-78
2023/10/21 00:39:23;;;;;;;9.65;3.70;;;;;;;16.19;51.57;93564.47;5064250;28;20036;-78
2023/10/21 00:41:48;;;;;;;8.45;3.63;;;;;;;16.20;50.84;93563.34;5064139;28;20114;-77
2023/10/21 00:44:13;;;;;;;7.28;3.80;;;;;;;16.16;50.94;93550.94;5062448;28;20025;-78
2023/10/21 00:46:40;;;;;;;10.60;4.38;;;;;;;16.11;51.55;93554.72;5063767;28;20082;-78
2023/10/21 00:49:06;;;;;;;15.25;4.05;;;;;;;16.12;51.67;93564.34;5063740;28;20029;-78
2023/10/21 00:51:32;;;;;;;15.45;3.08;;;;;;;16.07;50.88;93555.78;5063740;28;20239;-78
2023/10/21 00:54:00;;;;;;;13.88;3.70;;;;;;;16.10;50.46;93563.94;5063562;28;20093;-77
2023/10/21 00:56:25;;;;;;;14.20;4.03;;;;;;;16.12;50.28;93564.34;5063769;28;20025;-78
2023/10/21 00:58:51;;;;;;;14.35;4.22;;;;;;;16.14;50.95;93580.91;5063668;28;20025;-78
2023/10/21 01:01:16;;;;;;;12.15;3.30;;;;;;;16.11;50.04;93578.91;5063345;28;20025;-78
2023/10/21 01:03:41;;;;;;;14.32;3.17;;;;;;;16.14;50.43;93583.59;5063620;28;20019;-78
2023/10/21 01:06:07;;;;;;;6.93;3.25;;;;;;;16.07;50.67;93564.63;5063353;28;20071;-78
2023/10/21 01:08:43;;;;;;;17.30;4.70;;;;;;;16.04;51.03;93592.22;5061797;28;20079;-78
2023/10/21 01:11:11;;;;;;;20.55;4.45;;;;;;;15.94;51.13;93566.69;5063543;28;20028;-78
2023/10/21 01:13:37;;;;;;;14.65;4.10;;;;;;;15.96;51.53;93598.59;5063298;28;20070;-78
2023/10/21 01:16:02;;;;;;;17.08;4.10;;;;;;;15.92;51.46;93584.31;5063509;28;20016;-78
2023/10/21 01:18:33;;;;;;;18.55;4.22;;;;;;;15.88;51.76;93576.16;5062940;28;20218;-78
2023/10/21 01:20:59;;;;;;;11.38;3.97;;;;;;;15.94;52.18;93590.09;5063368;28;20021;-78
2023/10/21 01:23:25;;;;;;;15.45;4.03;;;;;;;15.91;51.53;93580.81;5062483;28;20116;-78
2023/10/21 01:25:50;;;;;;;18.83;3.67;;;;;;;15.88;51.51;93592.28;5063058;28;20024;-78
2023/10/21 01:28:16;;;;;;;8.85;3.83;;;;;;;15.90;51.47;93559.69;5063107;28;20389;-78
2023/10/21 01:30:41;;;;;;;17.88;5.63;;;;;;;15.98;51.81;93574.81;5063276;28;20063;-78
2023/10/21 01:33:06;;;;;;;16.38;4.05;;;;;;;15.89;52.48;93560.81;5063210;28;20052;-78
2023/10/21 01:35:32;;;;;;;17.85;4.68;;;;;;;15.88;52.32;93586.91;5062943;28;20092;-78
2023/10/21 01:37:57;;;;;;;16.42;3.88;;;;;;;15.79;52.60;93573.69;5063082;28;20052;-78
2023/10/21 01:40:22;;;;;;;16.45;3.90;;;;;;;15.78;52.49;93569.44;5061963;28;20134;-78
2023/10/21 01:42:48;;;;;;;21.15;3.95;;;;;;;15.81;52.84;93570.63;5062874;28;20020;-78
2023/10/21 01:45:13;;;;;;;18.65;3.83;;;;;;;15.73;52.69;93542.06;5062991;28;20024;-78
2023/10/21 01:47:39;;;;;;;10.13;3.05;;;;;;;15.69;53.02;93558.06;5062998;28;20029;-78
2023/10/21 01:50:09;;;;;;;12.02;2.92;;;;;;;15.67;52.91;93560.31;5062806;28;20021;-78
2023/10/21 01:52:38;;;;;;;7.80;3.20;;;;;;;15.64;53.30;93550.28;5062744;28;20017;-78
2023/10/21 01:55:08;;;;;;;9.32;3.92;;;;;;;15.62;53.52;93564.06;5062625;28;20214;-78
2023/10/21 01:57:34;;;;;;;10.95;3.22;;;;;;;15.57;53.24;93563.56;5062811;28;20099;-78
2023/10/21 02:00:01;;;;;;;11.65;3.70;;;;;;;15.56;53.14;93575.44;5061439;28;20067;-77
2023/10/21 02:02:27;;;;;;;12.50;3.28;;;;;;;15.53;52.92;93565.41;5062813;28;20016;-78
2023/10/21 02:04:53;;;;;;;13.43;2.95;;;;;;;15.49;52.50;93591.41;5062967;28;20043;-78
2023/10/21 02:07:19;;;;;;;17.85;2.63;;;;;;;15.45;51.71;93588.66;5062587;28;20033;-78
2023/10/21 02:09:45;;;;;;;18.05;3.50;;;;;;;15.43;52.08;93589.00;5062647;28;20048;-79
2023/10/21 02:12:10;;;;;;;11.13;3.53;;;;;;;15.42;52.48;93578.59;5062761;28;20067;-78
2023/10/21 02:14:35;;;;;;;14.98;3.33;;;;;;;15.45;52.80;93585.97;5062733;28;20066;-78
2023/10/21 02:17:01;;;;;;;12.10;2.60;;;;;;;15.44;51.93;93590.53;5062379;28;20334;-78
2023/10/21 02:19:26;;;;;;;21.10;3.30;;;;;;;15.34;52.77;93568.81;5065024;28;20083;-78
2023/10/21 02:21:51;;;;;;;7.40;2.55;;;;;;;15.34;52.44;93572.28;5066735;28;20108;-78
2023/10/21 02:24:17;;;;;;;15.00;4.13;;;;;;;15.36;53.39;93590.75;5066420;28;20310;-78
2023/10/21 02:26:42;;;;;;;13.85;2.55;;;;;;;15.36;53.33;93564.66;5066174;28;20311;-78
2023/10/21 02:29:08;;;;;;;9.18;3.15;;;;;;;15.35;53.70;93565.81;5066196;28;20088;-78
2023/10/21 02:31:34;;;;;;;8.00;3.60;;;;;;;15.31;53.18;93586.41;5066277;28;20013;-78
2023/10/21 02:34:00;;;;;;;6.07;2.25;;;;;;;15.19;52.71;93579.25;5066266;28;20210;-78
2023/10/21 02:36:25;;;;;;;16.90;4.40;;;;;;;15.22;53.16;93585.81;5066076;28;20096;-78
2023/10/21 02:38:51;;;;;;;12.95;2.45;;;;;;;15.25;52.76;93601.25;5065946;28;20013;-78
2023/10/21 02:41:17;;;;;;;12.85;3.17;;;;;;;15.18;52.47;93587.63;5064775;28;20024;-78
2023/10/21 02:43:42;;;;;;;16.38;3.83;;;;;;;15.21;52.48;93595.78;5065950;28;20095;-78
2023/10/21 02:46:12;;;;;;;11.23;2.58;;;;;;;15.24;52.86;93597.78;5066028;28;20024;-78
2023/10/21 02:48:38;;;;;;;9.05;2.92;;;;;;;15.28;52.49;93619.31;5066028;28;20204;-79
2023/10/21 02:51:10;;;;;;;12.45;3.25;;;;;;;15.27;52.32;93588.25;5065948;28;20021;-78
2023/10/21 02:53:36;;;;;;;;;;;;;;;15.30;53.07;93611.69;5066109;28;20021;-79
2023/10/21 02:56:05;;;;;;;7.80;3.20;;;;;;;15.14;53.25;93592.16;5066111;28;19912;-78
2023/10/21 02:58:31;;;;;;;7.60;3.03;;;;;;;15.19;53.78;93591.91;5066272;28;20021;-78
2023/10/21 03:00:56;;;;;;;8.57;2.67;;;;;;;15.18;53.09;93593.81;5065756;28;20029;-78
2023/10/21 03:03:21;;;;;;;15.68;2.97;;;;;;;15.16;52.89;93619.41;5065981;28;20021;-78
2023/10/21 03:05:47;;;;;;;17.65;3.47;;;;;;;15.15;52.69;93609.81;5065872;28;20021;-78
2023/10/21 03:08:12;;;;;;;12.98;2.88;;;;;;;15.17;52.31;93615.63;5065344;28;20025;-78
2023/10/21 03:10:37;;;;;;;10.63;3.25;;;;;;;15.21;52.68;93619.16;5065489;28;20021;-78
2023/10/21 03:13:03;;;;;;;11.88;2.90;;;;;;;15.23;52.96;93614.22;5065657;28;20095;-78
2023/10/21 03:15:29;;;;;;;11.75;2.63;;;;;;;15.21;53.02;93613.81;5065406;28;20067;-78
2023/10/21 03:17:54;;;;;;;18.17;3.17;;;;;;;15.24;53.13;93623.84;5065094;28;20243;-78
2023/10/21 03:20:20;;;;;;;9.05;3.00;;;;;;;15.18;53.13;93619.84;5063689;28;20017;-78
2023/10/21 03:22:45;;;;;;;18.33;3.15;;;;;;;15.11;53.50;93617.78;5063987;28;20079;-78
2023/10/21 03:25:11;;;;;;;9.77;2.97;;;;;;;15.11;54.04;93630.44;5064053;28;20032;-78
2023/10/21 03:27:37;;;;;;;6.30;2.88;;;;;;;15.00;53.80;93606.81;5064810;28;20051;-78
2023/10/21 03:30:02;;;;;;;9.40;2.58;;;;;;;14.99;54.31;93624.00;5064555;28;20092;-78
2023/10/21 03:32:28;;;;;;;10.90;2.80;;;;;;;14.97;54.53;93626.25;5064983;28;20029;-78
2023/10/21 03:34:53;;;;;;;18.23;3.47;;;;;;;14.98;54.53;93627.84;5065127;28;20060;-78
2023/10/21 03:37:19;;;;;;;15.23;4.45;;;;;;;15.00;53.98;93628.28;5064816;28;20028;-78
2023/10/21 03:39:44;;;;;;;20.42;4.38;;;;;;;14.98;54.16;93622.47;5065013;28;20075;-78
2023/10/21 03:42:09;;;;;;;9.85;3.55;;;;;;;14.98;54.03;93611.75;5064658;28;20223;-77
2023/10/21 03:44:35;;;;;;;11.63;4.15;;;;;;;15.00;54.03;93614.06;5064827;28;20032;-78
2023/10/21 03:47:00;;;;;;;15.52;3.28;;;;;;;14.99;54.76;93612.50;5064775;28;20029;-78
2023/10/21 03:49:25;;;;;;;9.20;2.95;;;;;;;14.89;54.31;93603.06;5065156;28;20028;-78
2023/10/21 03:51:51;;;;;;;13.18;3.53;;;;;;;14.93;54.57;93606.63;5064719;28;20025;-78
2023/10/21 03:54:16;;;;;;;12.20;3.08;;;;;;;14.94;54.13;93604.69;5064560;28;20067;-78
2023/10/21 03:56:41;;;;;;;12.65;4.32;;;;;;;14.94;54.35;93600.13;5064585;28;20257;-78
2023/10/21 03:59:07;;;;;;;10.00;2.90;;;;;;;14.99;54.03;93607.13;5064567;28;20335;-78
2023/10/21 04:01:32;;;;;;;11.32;3.10;;;;;;;15.01;53.88;93592.25;5064513;28;20027;-78
2023/10/21 04:03:58;;;;;;;10.57;2.75;;;;;;;15.01;54.45;93600.28;5064502;28;20017;-78
2023/10/21 04:06:23;;;;;;;18.42;3.88;;;;;;;14.99;53.90;93597.19;5064560;28;20032;-78
2023/10/21 04:08:48;;;;;;;6.75;2.88;;;;;;;14.97;54.51;93615.53;5064297;28;20087;-78
2023/10/21 04:11:14;;;;;;;14.63;3.10;;;;;;;14.93;54.68;93603.94;5064302;28;20020;-79
2023/10/21 04:13:39;;;;;;;8.63;3.10;;;;;;;14.94;54.37;93602.81;5064479;28;20048;-78
2023/10/21 04:16:05;;;;;;;12.77;2.78;;;;;;;14.98;54.97;93609.06;5063283;28;20101;-78
2023/10/21 04:18:30;;;;;;;12.40;3.90;;;;;;;14.92;54.83;93605.06;5064129;28;20045;-78
2023/10/21 04:20:55;;;;;;;12.85;5.78;;;;;;;14.93;55.29;93625.41;5064008;28;20230;-79
2023/10/21 04:23:21;;;;;;;18.08;6.15;;;;;;;14.94;54.54;93605.50;5064171;28;20013;-78
2023/10/21 04:25:47;;;;;;;20.75;7.93;;;;;;;15.00;54.85;93620.22;5064266;28;20092;-78
2023/10/21 04:28:12;;;;;;;18.48;7.32;;;;;;;14.93;55.27;93630.00;5063959;28;20088;-78
2023/10/21 04:30:38;;;;;;;22.95;7.40;;;;;;;14.91;55.69;93624.97;5063952;28;20092;-78
2023/10/21 04:33:04;;;;;;;15.75;7.25;;;;;;;14.84;55.28;93617.53;5063944;28;20319;-78
2023/10/21 04:35:30;;;;;;;12.75;3.88;;;;;;;14.90;55.72;93625.31;5064029;28;20021;-78
2023/10/21 04:37:56;;;;;;;13.57;4.38;;;;;;;14.85;55.85;93624.44;5063961;28;20112;-78
2023/10/21 04:40:21;;;;;;;13.80;2.80;;;;;;;14.86;55.65;93622.56;5063825;28;20017;-78
2023/10/21 04:42:47;;;;;;;15.25;3.03;;;;;;;14.88;55.62;93617.63;5062915;28;20040;-78
2023/10/21 04:45:12;;;;;;;9.63;3.40;;;;;;;14.89;55.70;93631.81;5063666;28;20269;-78
2023/10/21 04:47:38;;;;;;;22.83;4.82;;;;;;;14.88;55.83;93639.09;5063598;28;20029;-78
2023/10/21 04:50:05;;;;;;;15.75;5.20;;;;;;;14.89;55.13;93621.84;5063704;28;20043;-78
2023/10/21 04:52:30;;;;;;;13.02;4.50;;;;;;;14.90;55.46;93642.22;5063620;28;20055;-78
2023/10/21 04:54:56;;;;;;;12.52;3.45;;;;;;;14.89;55.78;93653.28;5062618;28;20062;-78
2023/10/21 04:57:21;;;;;;;12.63;4.10;;;;;;;14.89;55.32;93658.66;5063398;28;20315;-78
2023/10/21 04:59:47;;;;;;;12.48;4.07;;;;;;;14.89;55.50;93648.69;5063363;28;20102;-78
2023/10/21 05:02:12;;;;;;;11.93;3.10;;;;;;;14.89;56.21;93678.19;5063434;28;20091;-78
2023/10/21 05:04:39;;;;;;;21.58;3.50;;;;;;;14.86;55.54;93662.81;5063572;28;20338;-78
2023/10/21 05:07:05;;;;;;;21.95;4.22;;;;;;;14.92;55.21;93680.22;5063331;28;20303;-78
2023/10/21 05:09:31;;;;;;;13.43;4.05;;;;;;;14.94;55.38;93677.97;5063176;28;20036;-80
2023/10/21 05:11:57;;;;;;;18.15;4.30;;;;;;;15.01;54.17;93690.78;5063193;28;20025;-79
2023/10/21 05:14:22;;;;;;;12.90;3.10;;;;;;;15.05;53.88;93689.72;5063372;28;20040;-79
2023/10/21 05:16:48;;;;;;;11.00;3.17;;;;;;;15.12;54.93;93696.41;5062093;28;20037;-79
2023/10/21 05:19:13;;;;;;;11.18;2.80;;;;;;;15.17;55.35;93698.84;5062909;28;20048;-79
2023/10/21 05:21:38;;;;;;;12.25;3.70;;;;;;;15.12;55.22;93723.25;5061905;28;20040;-79
2023/10/21 05:24:04;;;;;;;12.95;4.47;;;;;;;15.09;55.09;93700.56;5062927;28;20181;-79
2023/10/21 05:26:29;;;;;;;14.13;4.53;;;;;;;15.16;54.92;93702.63;5061723;28;20066;-79
2023/10/21 05:28:57;;;;;;;9.40;3.25;;;;;;;15.20;55.50;93708.88;5062034;28;20056;-79
2023/10/21 05:31:23;;;;;;;8.27;2.95;;;;;;;15.19;55.36;93705.41;5063082;28;20028;-79
2023/10/21 05:33:48;;;;;;;9.68;2.90;;;;;;;15.24;55.15;93707.88;5062914;28;20100;-79
2023/10/21 05:36:13;;;;;;;10.75;3.20;;;;;;;15.32;56.45;93710.72;5061985;28;20040;-79
2023/10/21 05:38:39;;;;;;;15.15;3.95;;;;;;;15.36;56.11;93704.28;5062946;28;20084;-78
2023/10/21 05:41:04;;;;;;;17.83;3.30;;;;;;;15.38;55.77;93707.41;5063034;28;20336;-79
2023/10/21 05:43:30;;;;;;;17.13;4.70;;;;;;;15.45;57.09;93721.03;5062952;28;20052;-78
2023/10/21 05:45:55;;;;;;;22.33;3.97;;;;;;;15.38;54.72;93731.56;5063361;28;20332;-79
2023/10/21 05:48:20;;;;;;;20.70;4.55;;;;;;;15.41;54.59;93708.66;5062608;28;20033;-79
2023/10/21 05:50:47;;;;;;;12.93;3.60;;;;;;;15.50;55.05;93738.00;5062877;28;20029;-78
2023/10/21 05:53:12;;;;;;;11.25;3.67;;;;;;;15.57;54.38;93732.78;5063549;28;20049;-78
2023/10/21 05:55:42;;;;;;;17.88;3.45;;;;;;;15.66;54.68;93752.22;5069837;28;20322;-78
2023/10/21 05:58:10;;;;;;;14.50;3.70;;;;;;;15.70;55.23;93747.72;5069500;28;20024;-78
2023/10/21 06:00:36;;;;;;;17.65;4.28;;;;;;;15.74;55.25;93755.88;5069278;28;20024;-78
2023/10/21 06:03:03;;;;;;;16.80;3.85;;;;;;;15.77;53.92;93755.19;5069501;28;20028;-78
2023/10/21 06:05:28;;;;;;;16.13;3.60;;;;;;;15.91;55.17;93757.44;5069290;28;20021;-78
2023/10/21 06:07:54;;;;;;;17.00;4.20;;;;;;;15.99;55.12;93740.31;5069569;28;20104;-78
2023/10/21 06:10:20;;;;;;;12.98;4.43;;;;;;;16.09;55.35;93769.38;5069076;28;20025;-79
2023/10/21 06:12:48;;;;;;;10.82;3.85;;;;;;;16.18;54.87;93744.97;5069171;28;20047;-78
2023/10/21 06:15:14;;;;;;;13.13;4.53;;;;;;;16.30;54.77;93754.84;5069261;28;20036;-78
2023/10/21 06:17:39;;;;;;;12.80;4.70;;;;;;;16.36;55.12;93756.13;5069057;28;20049;-78
2023/10/21 06:20:07;;;;;;;11.20;3.92;;;;;;;16.44;54.48;93757.81;5069280;28;20175;-79
2023/10/21 06:22:33;;;;;;;18.52;3.92;;;;;;;16.53;54.02;93758.41;5069148;28;20035;-79
2023/10/21 06:24:58;;;;;;;13.57;3.38;;;;;;;16.61;54.03;93746.66;5069336;28;20268;-78
2023/10/21 06:27:23;;;;;;;17.15;3.30;;;;;;;16.74;52.66;93739.22;5069046;28;20322;-78
2023/10/21 06:29:49;;;;;;;7.80;4.53;;;;;;;16.84;52.57;93732.53;5069215;28;20040;-78
2023/10/21 06:32:14;;;;;;;13.35;3.22;;;;;;;16.94;53.23;93742.72;5068846;28;20021;-78
2023/10/21 06:34:39;;;;;;;14.27;3.60;;;;;;;17.03;52.73;93748.66;5068779;28;20032;-78
2023/10/21 06:37:05;;;;;;;12.15;3.40;;;;;;;17.13;52.52;93749.97;5068865;28;20025;-78
2023/10/21 06:39:31;;;;;;;8.45;3.03;;;;;;;17.25;52.43;93762.50;5068550;28;20058;-78
2023/10/21 06:41:57;;;;;;;23.23;5.28;;;;;;;17.36;52.44;93766.19;5068938;28;20024;-83
2023/10/21 06:44:23;;;;;;;13.40;3.40;;;;;;;17.49;52.32;93757.94;5067557;28;20025;-81
2023/10/21 06:46:49;;;;;;;18.67;3.65;;;;;;;17.62;52.64;93753.91;5068766;28;20024;-83
2023/10/21 06:49:14;;;;;;;11.60;3.22;;;;;;;17.71;52.47;93751.75;5067558;28;20027;-83
2023/10/21 06:51:40;;;;;;;14.25;3.47;;;;;;;17.75;52.35;93757.22;5069277;28;20092;-83
2023/10/21 06:54:05;;;;;;;10.05;2.95;;;;;;;17.84;51.88;93755.84;5069088;28;20020;-83
2023/10/21 06:56:31;;;;;;;11.25;3.65;;;;;;;17.94;51.40;93745.59;5069030;28;20063;-84
2023/10/21 06:58:57;;;;;;;12.25;3.22;;;;;;;18.04;50.01;93758.47;5068400;28;20027;-83
2023/10/21 07:01:22;;;;;;;11.57;3.03;;;;;;;18.12;49.10;93757.44;5068913;28;20028;-83
2023/10/21 07:03:49;;;;;;;18.33;3.20;;;;;;;18.22;49.70;93762.19;5069149;28;20116;-84
2023/10/21 07:06:14;;;;;;;10.32;3.58;;;;;;;18.27;48.63;93747.63;5064099;28;20040;-84
2023/10/21 07:08:40;;;;;;;21.70;3.17;;;;;;;18.32;48.67;93757.31;5066125;28;20032;-83
2023/10/21 07:11:05;;;;;;;13.13;3.60;;;;;;;18.44;48.43;93757.13;5065976;28;20196;-83
2023/10/21 07:13:30;;;;;;;17.13;2.92;;;;;;;18.49;48.00;93751.38;5065838;28;20025;-83
2023/10/21 07:15:56;;;;;;;7.78;3.03;;;;;;;18.53;48.66;93756.84;5065540;28;20025;-84
2023/10/21 07:18:22;;;;;;;10.43;3.42;;;;;;;18.61;48.60;93748.47;5065577;28;20067;-83
2023/10/21 07:20:55;;;;;;;14.57;3.60;;;;;;;18.72;47.41;93748.59;5065516;28;20039;-83
2023/10/21 07:23:21;;;;;;;21.20;3.72;;;;;;;18.81;47.82;93734.84;5064403;28;20045;-83
2023/10/21 07:25:46;;;;;;;13.77;4.03;;;;;;;18.88;47.66;93753.81;5065169;28;20066;-82
2023/10/21 07:28:11;;;;;;;13.63;3.45;;;;;;;18.89;47.31;93733.78;5065327;28;20089;-83
2023/10/21 07:30:37;;;;;;;15.40;3.47;;;;;;;18.95;47.87;93740.41;5064986;28;20196;-83
2023/10/21 07:33:02;;;;;;;16.40;4.20;;;;;;;19.10;48.55;93745.97;5065333;28;20025;-83
2023/10/21 07:35:28;;;;;;;7.82;3.47;;;;;;;19.10;47.99;93744.03;5065324;28;20021;-83
2023/10/21 07:37:54;;;;;;;18.77;3.22;;;;;;;19.20;47.72;93745.31;5065191;28;20021;-83
2023/10/21 07:40:20;;;;;;;18.42;3.78;;;;;;;19.30;47.29;93741.94;5065380;28;20223;-83
2023/10/21 07:42:46;;;;;;;23.27;5.75;;;;;;;19.42;47.15;93736.25;5063965;28;20028;-83
2023/10/21 07:45:14;;;;;;;16.55;4.03;;;;;;;19.47;46.93;93745.19;5065064;28;20402;-81
2023/10/21 07:47:40;;;;;;;17.55;3.83;;;;;;;19.52;46.87;93752.94;5064835;28;20025;-81
2023/10/21 07:50:10;;;;;;;12.38;3.70;;;;;;;19.62;46.57;93755.75;5064954;28;20066;-82
2023/10/21 07:52:36;;;;;;;11.88;3.97;;;;;;;19.73;46.13;93755.88;5065170;28;20032;-82
2023/10/21 07:55:03;;;;;;;18.70;4.18;;;;;;;19.81;45.58;93768.31;5064826;28;20025;-82
2023/10/21 07:57:30;;;;;;;15.15;3.22;;;;;;;19.92;45.51;93754.84;5063575;28;20045;-83
2023/10/21 07:59:57;;;;;;;20.55;4.38;;;;;;;19.95;44.77;93742.53;5063825;28;20021;-82
2023/10/21 08:02:22;;;;;;;15.23;4.57;;;;;;;19.99;45.30;93749.50;5064557;28;20020;-83
2023/10/21 08:04:48;;;;;;;23.38;4.35;;;;;;;20.15;45.76;93733.00;5063368;28;20020;-83
2023/10/21 08:07:13;;;;;;;16.30;5.10;;;;;;;20.16;45.09;93756.19;5063551;28;20025;-82
2023/10/21 08:09:39;;;;;;;20.58;4.10;;;;;;;20.26;44.90;93749.31;5064486;28;20021;-82
2023/10/21 08:12:04;;;;;;;20.70;4.50;;;;;;;20.33;44.74;93745.88;5064216;28;20036;-82
2023/10/21 08:14:31;;;;;;;18.50;3.80;;;;;;;20.47;44.67;93747.88;5063938;28;20071;-81
2023/10/21 08:16:58;;;;;;;19.55;5.03;;;;;;;20.43;44.45;93737.03;5063959;28;20028;-82
2023/10/21 08:19:24;;;;;;;16.15;4.00;;;;;;;20.57;43.94;93734.41;5064084;28;20047;-82
2023/10/21 08:21:50;;;;;;;24.00;3.95;;;;;;;20.61;43.55;93735.22;5063892;28;20271;-81
2023/10/21 08:24:15;;;;;;;22.85;4.70;;;;;;;20.67;43.05;93751.88;5064015;28;20044;-82
2023/10/21 08:26:41;;;;;;;20.60;5.18;;;;;;;20.76;43.40;93741.50;5063844;28;20041;-82
2023/10/21 08:29:07;;;;;;;17.42;3.83;;;;;;;20.86;42.93;93753.50;5063989;28;20060;-83
2023/10/21 08:31:33;;;;;;;11.23;3.78;;;;;;;20.95;43.12;93745.81;5064017;28;20280;-82
2023/10/21 08:33:58;;;;;;;20.23;4.18;;;;;;;21.00;41.68;93736.53;5062680;28;20029;-83
2023/10/21 08:36:23;;;;;;;23.45;3.70;;;;;;;21.06;41.45;93742.38;5064095;28;20311;-82
2023/10/21 08:38:53;;;;;;;15.75;3.50;;;;;;;21.15;41.96;93702.16;5063497;28;20052;-82
2023/10/21 08:41:19;;;;;;;17.83;3.95;;;;;;;21.21;42.32;93714.16;5063837;28;20044;-82
2023/10/21 08:43:49;;;;;;;10.63;3.47;;;;;;;21.36;42.24;93737.41;5063729;28;20031;-82
2023/10/21 08:46:18;;;;;;;18.85;4.00;;;;;;;21.50;42.13;93727.78;5063889;28;20203;-82
2023/10/21 08:48:46;;;;;;;12.63;5.75;;;;;;;21.57;41.79;93746.78;5063436;28;20228;-81
2023/10/21 08:51:17;;;;;;;20.20;3.63;;;;;;;21.91;36.70;93736.34;5063687;28;20025;-82
2023/10/21 08:53:46;;;;;;;14.43;2.55;;;;;;;22.14;33.57;93708.78;5062149;28;20078;-83
2023/10/21 08:56:12;;;;;;;18.88;2.53;;;;;;;22.61;29.35;93704.06;5063489;28;20032;-83
2023/10/21 08:58:38;;;;;;;8.05;2.65;;;;;;;23.05;28.95;93712.81;5063464;28;20017;-83
2023/10/21 09:01:05;;;;;;;12.00;2.67;;;;;;;23.32;30.18;93701.41;5063589;28;20043;-82
2023/10/21 09:03:31;;;;;;;14.90;2.47;;;;;;;23.62;29.56;93709.00;5063355;28;20115;-83
2023/10/21 09:06:17;;;;;;;12.25;2.25;;;;;;;23.85;26.81;93711.16;5063352;28;20035;-82
2023/10/21 09:08:43;;;;;;;15.60;2.10;;;;;;;24.02;27.19;93732.03;5063264;28;20375;-83
2023/10/21 09:11:13;;;;;;;22.80;2.58;;;;;;;24.25;29.12;93759.84;5062153;28;20025;-83
2023/10/21 09:13:41;;;;;;;16.85;2.40;;;;;;;24.43;25.90;93697.81;5063417;28;20031;-84
2023/10/21 09:16:24;;;;;;;11.75;2.17;;;;;;;24.66;24.89;93693.69;5063109;28;20074;-85
2023/10/21 09:19:09;;;;;;;16.23;2.33;;;;;;;24.77;26.02;93708.75;5061940;28;20052;-84
2023/10/21 09:21:38;;;;;;;13.82;2.75;;;;;;;24.86;24.91;93708.25;5063209;28;20028;-84
2023/10/21 09:24:11;;;;;;;10.73;2.40;;;;;;;24.98;25.72;93704.22;5063440;28;20028;-83
2023/10/21 09:26:41;;;;;;;23.25;2.65;;;;;;;25.06;23.25;93696.72;5061724;28;20207;-81
2023/10/21 09:29:11;;;;;;;18.02;2.92;;;;;;;25.19;23.44;93686.78;5062547;28;20020;-82
2023/10/21 09:31:40;;;;;;;6.85;2.35;;;;;;;25.34;23.67;93668.28;5062766;28;20061;-83
2023/10/21 09:34:06;;;;;;;17.35;2.60;;;;;;;25.44;22.57;93661.91;5062861;28;20020;-82
2023/10/21 09:36:39;;;;;;;9.00;2.35;;;;;;;25.56;22.95;93679.66;5061481;28;20032;-82
2023/10/21 09:39:05;;;;;;;15.70;2.60;;;;;;;25.58;23.27;93678.06;5062441;28;20310;-83
2023/10/21 09:41:30;;;;;;;7.80;1.70;;;;;;;25.64;23.43;93683.84;5062339;28;20087;-83
2023/10/21 09:43:59;;;;;;;11.45;2.25;;;;;;;25.76;22.95;93638.81;5062719;28;20044;-83
2023/10/21 09:46:28;;;;;;;9.70;2.47;;;;;;;25.86;22.79;93664.41;5062787;28;20307;-81
2023/10/21 09:48:59;;;;;;;10.65;2.33;;;;;;;25.89;22.58;93649.91;5061526;28;20114;-80
2023/10/21 09:51:30;;;;;;;19.67;2.70;;;;;;;25.93;21.57;93650.63;5062948;28;20235;-80
2023/10/21 09:54:00;;;;;;;11.38;2.33;;;;;;;25.94;22.10;93647.50;5062993;28;20021;-80
2023/10/21 09:56:26;;;;;;;14.05;2.47;;;;;;;26.02;22.17;93667.25;5061650;28;20062;-80
2023/10/21 09:58:54;;;;;;;18.95;2.83;;;;;;;26.05;22.36;93650.03;5062794;28;20329;-80
2023/10/21 10:01:23;;;;;;;18.15;2.50;;;;;;;26.11;22.79;93634.72;5061530;28;20067;-80
2023/10/21 10:03:51;;;;;;;12.65;3.78;;;;;;;26.13;22.18;93650.69;5062730;28;20043;-80
2023/10/21 10:06:19;;;;;;;10.60;1.95;;;;;;;26.15;22.23;93637.38;5062554;28;20040;-80
2023/10/21 10:08:45;;;;;;;10.80;2.60;;;;;;;26.17;21.64;93633.03;5062537;28;20032;-80
2023/10/21 10:11:15;;;;;;;6.45;1.90;;;;;;;26.23;21.97;93616.94;5062605;28;20319;-80
2023/10/21 10:13:49;;;;;;;14.55;2.53;;;;;;;26.32;22.11;93643.72;5062759;28;20239;-81
2023/10/21 10:16:25;;;;;;;8.68;1.95;;;;;;;26.34;22.07;93638.63;5062458;28;20025;-81
2023/10/21 10:18:52;;;;;;;27.80;2.60;;;;;;;26.36;22.46;93625.31;5062250;28;20056;-81
2023/10/21 10:21:18;;;;;;;13.85;3.47;;;;;;;26.42;22.49;93607.22;5062480;28;20048;-82
2023/10/21 10:23:51;;;;;;;19.83;3.72;;;;;;;26.41;21.98;93613.88;5062418;28;20062;-85
2023/10/21 10:26:36;;;;;;;19.15;3.22;;;;;;;26.34;21.97;93589.44;5060699;28;20092;-84
2023/10/21 10:29:27;;;;;;;19.13;3.58;;;;;;;26.35;21.46;93590.97;5061646;28;20327;-83
2023/10/21 10:32:14;;;;;;;19.83;3.07;;;;;;;26.39;21.64;93597.13;5062407;28;20032;-83
2023/10/21 10:34:56;;;;;;;19.80;2.85;;;;;;;26.52;21.51;93595.31;5062271;28;20402;-83
2023/10/21 10:37:29;;;;;;;16.98;3.28;;;;;;;26.43;20.88;93584.16;5062459;28;20086;-83
2023/10/21 10:39:55;;;;;;;14.77;2.45;;;;;;;26.41;21.16;93595.50;5062271;28;20021;-82
2023/10/21 10:42:26;;;;;;;22.73;2.58;;;;;;;26.46;22.02;93579.81;5065288;28;20039;-82
2023/10/21 10:44:53;;;;;;;34.63;3.67;;;;;;;26.43;21.53;93570.50;5065878;28;20052;-82
2023/10/21 10:47:19;;;;;;;14.77;2.15;;;;;;;26.44;21.40;93577.53;5065710;28;20025;-82
2023/10/21 10:49:59;;;;;;;16.40;3.10;;;;;;;26.35;21.54;93582.78;5065674;28;20119;-82
2023/10/21 10:52:33;;;;;;;11.82;2.15;;;;;;;26.36;21.44;93597.97;5065769;28;20020;-82
2023/10/21 10:55:00;;;;;;;10.32;2.35;;;;;;;26.32;21.54;93561.78;5064493;28;20029;-83
2023/10/21 10:57:25;;;;;;;9.70;1.70;;;;;;;26.30;21.73;93545.78;5065671;28;20091;-82
2023/10/21 10:59:53;;;;;;;23.40;5.03;;;;;;;26.42;21.32;93534.22;5065892;28;20045;-82
2023/10/21 11:02:18;;;;;;;13.38;2.55;;;;;;;26.51;21.95;93546.53;5065571;28;20033;-82
2023/10/21 11:04:48;;;;;;;15.10;3.15;;;;;;;26.49;21.60;93540.72;5064301;28;20028;-82
2023/10/21 11:07:15;;;;;;;16.90;2.30;;;;;;;26.48;21.50;93550.09;5065309;28;20029;-84
2023/10/21 11:09:40;;;;;;;15.35;3.42;;;;;;;26.48;22.29;93545.44;5065666;28;20219;-82
2023/10/21 11:12:06;;;;;;;15.40;2.58;;;;;;;26.46;22.51;93509.56;5065273;28;20033;-82
2023/10/21 11:14:31;;;;;;;21.95;4.57;;;;;;;26.37;22.06;93531.22;5065330;28;20045;-81
2023/10/21 11:16:57;;;;;;;10.38;2.55;;;;;;;26.43;22.67;93562.31;5065408;28;20016;-81
2023/10/21 11:19:25;;;;;;;9.35;2.33;;;;;;;26.38;23.09;93562.81;5065130;28;20036;-81
2023/10/21 11:21:52;;;;;;;11.35;2.33;;;;;;;26.39;23.28;93565.09;5065024;28;20056;-83
2023/10/21 11:24:19;;;;;;;29.58;3.35;;;;;;;26.41;22.65;93499.88;5065421;28;20092;-82